Time;durP1;ratioP1;P1;durP2;ratioP2;P2;SDS_P1;SDS_P2;PMS_P1;PMS_P2;Temp;Humidity;BMP_temperature;BMP_pressure;BME280_temperature;BME280_humidity;BME280_pressure;Samples;Min_cycle;Max_cycle;Signal;HPM_P1;HPM_P2
2021/10/31 00:00:04;;;;;;;13.55;7.20;;;26.60;99.90;;;;;;4192882;28;20082;-67
2021/10/31 00:02:13;;;;;;;14.60;6.85;;;26.60;99.90;;;;;;4196139;28;20044;-67
2021/10/31 00:04:18;;;;;;;10.02;6.97;;;26.60;99.90;;;;;;4183332;28;20059;-67
2021/10/31 00:06:22;;;;;;;10.45;6.32;;;26.70;99.90;;;;;;4196091;28;20044;-67
2021/10/31 00:08:27;;;;;;;8.77;6.25;;;26.70;99.90;;;;;;4193777;28;20497;-67
2021/10/31 00:10:31;;;;;;;8.07;5.75;;;26.70;99.90;;;;;;4177434;28;21062;-67
2021/10/31 00:12:36;;;;;;;10.45;6.38;;;26.70;99.90;;;;;;4182145;28;20136;-67
2021/10/31 00:14:40;;;;;;;9.07;6.22;;;26.60;99.90;;;;;;4185868;28;20460;-68
2021/10/31 00:16:44;;;;;;;7.80;5.28;;;26.60;99.90;;;;;;4189663;28;20051;-67
2021/10/31 00:18:49;;;;;;;8.27;5.53;;;26.70;99.90;;;;;;4189509;28;20082;-67
2021/10/31 00:20:56;;;;;;;8.85;5.38;;;26.80;99.90;;;;;;4194575;28;20344;-67
2021/10/31 00:23:01;;;;;;;7.93;5.20;;;26.80;99.90;;;;;;4187802;28;20044;-66
2021/10/31 00:25:06;;;;;;;12.27;4.90;;;26.80;99.90;;;;;;4189357;28;20573;-67
2021/10/31 00:27:10;;;;;;;8.18;4.82;;;26.80;99.90;;;;;;4199180;28;20486;-67
2021/10/31 00:29:15;;;;;;;7.07;5.38;;;26.90;99.90;;;;;;4186420;28;20130;-66
2021/10/31 00:31:20;;;;;;;8.23;5.10;;;26.90;99.90;;;;;;4187930;28;20044;-67
2021/10/31 00:33:25;;;;;;;9.68;5.28;;;26.90;99.90;;;;;;4184066;28;20140;-66
2021/10/31 00:35:29;;;;;;;7.47;4.70;;;27.00;99.90;;;;;;4190417;28;20049;-67
2021/10/31 00:37:34;;;;;;;8.43;5.22;;;26.90;99.90;;;;;;4190435;28;20048;-67
2021/10/31 00:39:38;;;;;;;8.02;4.57;;;27.00;99.90;;;;;;4182811;28;20087;-67
2021/10/31 00:41:43;;;;;;;7.43;4.80;;;27.00;99.90;;;;;;4184576;28;20049;-66
2021/10/31 00:43:47;;;;;;;7.60;5.05;;;27.10;99.90;;;;;;4183716;28;20036;-67
2021/10/31 00:45:52;;;;;;;11.32;4.60;;;27.10;99.90;;;;;;4191160;28;20041;-69
2021/10/31 00:47:56;;;;;;;6.65;4.32;;;27.10;99.90;;;;;;4194955;28;20363;-68
2021/10/31 00:50:01;;;;;;;8.98;5.43;;;27.20;99.90;;;;;;4192480;28;20388;-69
2021/10/31 00:52:06;;;;;;;6.00;4.07;;;27.20;99.90;;;;;;4190747;28;20044;-69
2021/10/31 00:54:10;;;;;;;9.85;4.75;;;27.10;99.90;;;;;;4182489;28;20040;-69
2021/10/31 00:56:14;;;;;;;6.53;4.55;;;27.10;99.90;;;;;;4191275;28;20042;-69
2021/10/31 00:58:19;;;;;;;7.35;4.20;;;27.20;99.90;;;;;;4196039;28;20052;-68
2021/10/31 01:00:24;;;;;;;7.93;3.97;;;27.20;99.90;;;;;;4191087;28;20067;-69
2021/10/31 01:02:29;;;;;;;6.75;4.43;;;27.20;99.90;;;;;;4185638;28;20127;-69
2021/10/31 01:04:33;;;;;;;6.45;4.07;;;27.20;99.90;;;;;;4183665;28;20580;-68
2021/10/31 01:06:50;;;;;;;6.80;4.03;;;27.30;99.90;;;;;;4190806;28;20126;-68
2021/10/31 01:09:15;;;;;;;5.88;4.05;;;27.30;99.90;;;;;;4192941;28;20491;-69
2021/10/31 01:11:45;;;;;;;7.90;3.78;;;27.30;99.90;;;;;;4171147;28;20049;-68
2021/10/31 01:14:14;;;;;;;6.18;3.63;;;27.40;99.90;;;;;;4182090;28;20051;-68
2021/10/31 01:16:51;;;;;;;7.70;3.72;;;27.40;99.90;;;;;;4192233;28;20240;-67
2021/10/31 01:19:25;;;;;;;7.28;3.90;;;27.50;99.90;;;;;;4191032;28;20052;-67
2021/10/31 01:22:10;;;;;;;7.00;4.30;;;27.50;99.90;;;;;;4187207;28;20484;-67
2021/10/31 01:24:45;;;;;;;8.23;4.22;;;27.50;99.90;;;;;;4179878;28;20044;-67
2021/10/31 01:27:35;;;;;;;5.85;3.38;;;27.60;99.90;;;;;;4185024;28;20047;-67
2021/10/31 01:30:05;;;;;;;6.03;3.50;;;27.50;99.90;;;;;;4191257;28;20060;-67
2021/10/31 01:32:42;;;;;;;7.45;3.25;;;27.50;99.90;;;;;;4184227;28;20048;-67
2021/10/31 01:35:05;;;;;;;6.05;3.70;;;27.50;99.90;;;;;;4181114;28;20052;-67
2021/10/31 01:37:42;;;;;;;10.13;3.63;;;27.60;99.90;;;;;;4187547;28;20611;-67
2021/10/31 01:39:56;;;;;;;6.10;3.67;;;27.60;99.90;;;;;;4188409;28;20048;-67
2021/10/31 01:42:17;;;;;;;6.80;3.38;;;27.60;99.90;;;;;;4178021;28;20044;-67
2021/10/31 01:44:35;;;;;;;4.75;3.10;;;27.70;99.90;;;;;;4177781;28;20037;-67
2021/10/31 01:47:01;;;;;;;5.22;2.97;;;27.60;99.90;;;;;;4190257;28;20043;-66
2021/10/31 01:49:34;;;;;;;6.63;3.33;;;27.50;99.90;;;;;;4188129;28;20102;-66
2021/10/31 01:51:46;;;;;;;4.97;3.50;;;27.60;99.90;;;;;;4190329;28;20441;-69
2021/10/31 01:53:57;;;;;;;5.07;3.70;;;27.70;99.90;;;;;;4178657;28;20064;-68
2021/10/31 01:56:08;;;;;;;6.05;3.60;;;27.50;99.90;;;;;;4204194;28;20044;-67
2021/10/31 01:58:14;;;;;;;5.75;3.50;;;27.40;99.90;;;;;;4191073;28;20135;-68
2021/10/31 02:00:23;;;;;;;4.88;3.85;;;27.40;99.90;;;;;;4189429;28;20364;-68
2021/10/31 02:02:29;;;;;;;4.65;3.08;;;27.50;99.90;;;;;;4187496;28;20033;-67
2021/10/31 02:04:34;;;;;;;5.97;3.25;;;27.60;99.90;;;;;;4181608;28;20045;-67
2021/10/31 02:06:43;;;;;;;4.38;3.20;;;27.60;99.90;;;;;;4172757;28;20127;-68
2021/10/31 02:08:47;;;;;;;5.28;3.28;;;27.60;99.90;;;;;;4190317;28;20601;-69
2021/10/31 02:10:52;;;;;;;4.60;3.28;;;27.80;99.90;;;;;;4190291;28;20139;-68
2021/10/31 02:12:57;;;;;;;5.72;3.30;;;27.80;99.90;;;;;;4184106;28;20218;-68
2021/10/31 02:15:01;;;;;;;6.03;3.53;;;27.80;99.90;;;;;;4182616;28;20112;-69
2021/10/31 02:17:06;;;;;;;8.15;3.88;;;27.90;99.90;;;;;;4190026;28;20040;-69
2021/10/31 02:19:21;;;;;;;4.80;3.28;;;27.90;99.90;;;;;;4188592;28;20076;-69
2021/10/31 02:21:26;;;;;;;5.55;3.42;;;28.00;99.90;;;;;;4188093;28;20052;-70
2021/10/31 02:23:30;;;;;;;3.88;3.03;;;28.00;99.90;;;;;;4181517;28;20566;-70
2021/10/31 02:25:35;;;;;;;4.90;2.85;;;28.10;99.90;;;;;;4188370;28;20055;-70
2021/10/31 02:27:42;;;;;;;5.90;2.95;;;28.30;99.90;;;;;;4190192;28;20032;-70
2021/10/31 02:29:55;;;;;;;6.60;2.60;;;28.30;99.90;;;;;;4188984;28;20442;-69
2021/10/31 02:31:59;;;;;;;5.88;2.90;;;28.40;99.90;;;;;;4189241;28;20049;-70
2021/10/31 02:34:06;;;;;;;3.17;2.78;;;28.40;99.90;;;;;;4179378;28;20056;-69
2021/10/31 02:36:10;;;;;;;7.60;4.65;;;28.50;99.90;;;;;;4188901;28;20041;-67
2021/10/31 02:38:15;;;;;;;6.78;3.40;;;28.50;99.90;;;;;;4189951;28;20047;-67
2021/10/31 02:40:21;;;;;;;5.30;3.08;;;28.50;99.90;;;;;;4189975;28;20437;-68
2021/10/31 02:42:25;;;;;;;3.63;2.80;;;28.60;99.90;;;;;;4177059;28;20049;-67
2021/10/31 02:44:30;;;;;;;5.25;2.83;;;28.50;99.90;;;;;;4179057;28;20693;-68
2021/10/31 02:46:36;;;;;;;3.72;2.65;;;28.60;99.90;;;;;;4186414;28;20123;-67
2021/10/31 02:48:42;;;;;;;3.20;2.10;;;28.60;99.90;;;;;;4190007;28;20538;-67
2021/10/31 02:50:47;;;;;;;4.47;2.30;;;28.60;99.90;;;;;;4188016;28;20044;-68
2021/10/31 02:53:24;;;;;;;4.65;2.20;;;28.70;99.90;;;;;;4183387;28;20418;-68
2021/10/31 02:55:47;;;;;;;3.30;2.30;;;28.80;99.90;;;;;;4182643;28;20036;-68
2021/10/31 02:58:07;;;;;;;4.70;2.50;;;28.90;99.90;;;;;;4189034;28;20353;-68
2021/10/31 03:00:13;;;;;;;4.22;2.13;;;29.00;99.90;;;;;;4187596;28;20056;-67
2021/10/31 03:02:21;;;;;;;4.85;2.30;;;29.10;99.90;;;;;;4186300;28;20074;-67
2021/10/31 03:04:27;;;;;;;4.28;2.38;;;29.10;99.90;;;;;;4182663;28;20048;-67
2021/10/31 03:06:31;;;;;;;3.38;1.90;;;29.10;99.90;;;;;;4191972;28;20588;-67
2021/10/31 03:08:36;;;;;;;4.50;1.50;;;29.10;99.90;;;;;;4193165;28;20082;-67
2021/10/31 03:10:49;;;;;;;3.83;1.50;;;29.10;99.90;;;;;;4192185;28;20064;-69
2021/10/31 03:12:53;;;;;;;3.08;1.65;;;29.20;99.90;;;;;;4186249;28;20095;-69
2021/10/31 03:15:02;;;;;;;2.50;1.40;;;29.20;99.90;;;;;;4185438;28;20048;-68
2021/10/31 03:17:06;;;;;;;2.45;1.30;;;29.30;99.90;;;;;;4194337;28;20053;-69
2021/10/31 03:19:11;;;;;;;2.65;1.60;;;29.30;99.90;;;;;;4193224;28;20139;-67
2021/10/31 03:21:17;;;;;;;2.10;1.30;;;29.20;99.90;;;;;;4193264;28;20325;-68
2021/10/31 03:23:22;;;;;;;2.72;1.88;;;29.20;99.90;;;;;;4185308;28;20058;-68
2021/10/31 03:25:26;;;;;;;2.33;1.55;;;29.20;99.90;;;;;;4185901;28;20654;-69
2021/10/31 03:27:31;;;;;;;3.00;1.50;;;29.20;99.90;;;;;;4184241;28;20407;-67
2021/10/31 03:29:36;;;;;;;3.40;1.88;;;29.30;99.90;;;;;;4189948;28;20052;-68
2021/10/31 03:31:40;;;;;;;4.43;1.98;;;29.40;99.90;;;;;;4192863;28;20037;-68
2021/10/31 03:33:44;;;;;;;3.45;1.60;;;29.40;99.90;;;;;;4185282;28;20248;-68
2021/10/31 03:35:49;;;;;;;4.30;1.63;;;29.30;99.90;;;;;;4190379;28;20098;-68
2021/10/31 03:37:53;;;;;;;3.83;1.90;;;29.30;99.90;;;;;;4191709;28;20048;-68
2021/10/31 03:39:57;;;;;;;2.65;1.70;;;29.20;99.90;;;;;;4192448;28;20044;-68
2021/10/31 03:42:02;;;;;;;2.92;1.80;;;29.10;99.90;;;;;;4191479;28;20570;-69
2021/10/31 03:44:07;;;;;;;2.53;1.55;;;29.30;99.90;;;;;;4180016;28;20040;-68
2021/10/31 03:46:11;;;;;;;3.17;1.60;;;29.50;99.90;;;;;;4194129;28;20106;-68
2021/10/31 03:48:15;;;;;;;4.82;1.80;;;29.80;99.90;;;;;;4191456;28;20044;-68
2021/10/31 03:50:24;;;;;;;4.28;1.60;;;29.90;99.90;;;;;;4188737;28;20044;-68
2021/10/31 03:52:28;;;;;;;2.60;1.70;;;30.10;99.90;;;;;;4177321;28;20098;-67
2021/10/31 03:54:33;;;;;;;4.18;1.85;;;30.20;99.90;;;;;;4182113;28;20105;-67
2021/10/31 03:56:37;;;;;;;3.05;1.60;;;30.10;99.90;;;;;;4189399;28;20053;-67
2021/10/31 03:58:42;;;;;;;2.08;1.60;;;30.00;99.90;;;;;;4189687;28;20078;-67
2021/10/31 04:00:47;;;;;;;2.05;1.40;;;30.00;99.90;;;;;;4192760;28;20437;-67
2021/10/31 04:02:52;;;;;;;5.53;1.75;;;30.10;99.90;;;;;;4186526;28;20164;-68
2021/10/31 04:04:56;;;;;;;2.33;1.40;;;30.10;99.90;;;;;;4185763;28;20113;-68
2021/10/31 04:07:01;;;;;;;1.90;1.35;;;30.00;99.80;;;;;;4192311;28;20069;-68
2021/10/31 04:09:05;;;;;;;2.70;1.50;;;29.90;99.80;;;;;;4192017;28;20285;-69
2021/10/31 04:11:09;;;;;;;2.38;1.50;;;30.00;99.90;;;;;;4191263;28;20048;-68
2021/10/31 04:13:14;;;;;;;2.63;1.63;;;30.10;99.90;;;;;;4182905;28;20040;-67
2021/10/31 04:15:19;;;;;;;2.95;1.48;;;30.20;99.90;;;;;;4182548;28;20052;-67
2021/10/31 04:17:24;;;;;;;1.88;1.40;;;30.30;99.90;;;;;;4182388;28;20055;-68
2021/10/31 04:19:28;;;;;;;2.65;1.60;;;30.40;99.90;;;;;;4185299;28;20049;-67
2021/10/31 04:21:33;;;;;;;2.72;1.55;;;30.50;99.90;;;;;;4190424;28;20143;-67
2021/10/31 04:23:37;;;;;;;2.03;1.70;;;30.50;99.90;;;;;;4165106;28;20048;-67
2021/10/31 04:25:42;;;;;;;2.90;1.85;;;30.60;99.50;;;;;;4190930;28;20040;-67
2021/10/31 04:27:46;;;;;;;3.08;1.70;;;30.60;99.20;;;;;;4192848;28;20056;-67
2021/10/31 04:29:51;;;;;;;1.98;1.50;;;30.70;99.40;;;;;;4188075;28;20048;-67
2021/10/31 04:31:56;;;;;;;3.45;1.50;;;30.70;99.40;;;;;;4186960;28;20574;-68
2021/10/31 04:34:00;;;;;;;2.53;1.55;;;30.70;98.80;;;;;;4175650;28;20067;-68
2021/10/31 04:36:06;;;;;;;2.83;1.52;;;30.70;98.80;;;;;;4191670;28;20075;-67
2021/10/31 04:38:16;;;;;;;2.20;1.30;;;30.50;98.80;;;;;;4188065;28;20482;-66
2021/10/31 04:40:22;;;;;;;1.75;1.20;;;30.40;98.60;;;;;;4189950;28;20048;-67
2021/10/31 04:42:30;;;;;;;4.70;1.48;;;30.30;99.00;;;;;;4171615;28;20049;-67
2021/10/31 04:44:35;;;;;;;2.08;1.33;;;30.50;98.90;;;;;;4185749;28;20125;-67
2021/10/31 04:46:39;;;;;;;2.38;1.00;;;30.40;97.80;;;;;;4184677;28;20055;-67
2021/10/31 04:48:44;;;;;;;3.22;1.08;;;30.40;97.50;;;;;;4187829;28;20060;-69
2021/10/31 04:50:49;;;;;;;2.67;1.20;;;30.40;97.60;;;;;;4186883;28;20475;-68
2021/10/31 04:52:53;;;;;;;2.47;1.20;;;30.40;98.10;;;;;;4181792;28;20041;-67
2021/10/31 04:54:58;;;;;;;2.40;1.00;;;30.50;98.00;;;;;;4181463;28;20074;-67
2021/10/31 04:57:03;;;;;;;1.50;1.00;;;30.60;97.50;;;;;;4187543;28;20572;-67
2021/10/31 04:59:08;;;;;;;2.00;1.00;;;30.50;98.20;;;;;;4186507;28;20094;-68
2021/10/31 05:01:12;;;;;;;2.22;1.20;;;30.50;98.10;;;;;;4185275;28;20044;-67
2021/10/31 05:03:18;;;;;;;1.20;0.80;;;30.40;98.00;;;;;;4181094;28;20032;-68
2021/10/31 05:05:22;;;;;;;4.00;1.10;;;30.50;98.00;;;;;;4184814;28;20047;-67
2021/10/31 05:07:27;;;;;;;2.17;0.90;;;30.50;97.50;;;;;;4189004;28;20043;-68
2021/10/31 05:09:33;;;;;;;7.03;1.10;;;30.60;97.80;;;;;;4188480;28;20506;-67
2021/10/31 05:11:37;;;;;;;1.67;0.90;;;30.80;97.90;;;;;;4188038;28;20377;-67
2021/10/31 05:13:44;;;;;;;1.52;0.80;;;31.00;97.80;;;;;;4178956;28;20102;-68
2021/10/31 05:15:48;;;;;;;1.33;0.80;;;31.10;97.80;;;;;;4186898;28;20415;-68
2021/10/31 05:17:56;;;;;;;3.47;0.95;;;31.10;97.30;;;;;;4188330;28;20052;-67
2021/10/31 05:20:01;;;;;;;1.13;0.80;;;31.00;97.10;;;;;;4189107;28;20106;-67
2021/10/31 05:22:05;;;;;;;2.33;0.98;;;31.00;97.20;;;;;;4187105;28;20095;-67
2021/10/31 05:24:09;;;;;;;2.53;1.10;;;31.00;97.30;;;;;;4177327;28;20362;-68
2021/10/31 05:26:14;;;;;;;4.25;0.75;;;30.90;97.20;;;;;;4186487;28;20141;-66
2021/10/31 05:28:19;;;;;;;1.83;1.02;;;31.00;97.20;;;;;;4189278;28;20048;-66
2021/10/31 05:30:23;;;;;;;2.30;1.30;;;31.10;96.90;;;;;;4186273;28;20048;-66
2021/10/31 05:32:36;;;;;;;1.88;1.13;;;31.10;96.80;;;;;;4184489;28;20055;-66
2021/10/31 05:34:40;;;;;;;1.30;1.00;;;31.10;96.90;;;;;;4183734;28;20396;-68
2021/10/31 05:36:45;;;;;;;1.95;1.30;;;31.00;97.10;;;;;;4182895;28;20299;-66
2021/10/31 05:38:49;;;;;;;3.15;1.70;;;31.00;97.10;;;;;;4187179;28;20375;-67
2021/10/31 05:40:54;;;;;;;2.60;1.48;;;31.00;97.10;;;;;;4187437;28;20044;-67
2021/10/31 05:42:59;;;;;;;2.97;1.30;;;31.20;97.20;;;;;;4182492;28;20052;-66
2021/10/31 05:45:04;;;;;;;1.73;1.17;;;31.30;97.00;;;;;;4164089;28;20080;-67
2021/10/31 05:47:08;;;;;;;2.55;1.10;;;31.50;97.00;;;;;;4187483;28;20684;-66
2021/10/31 05:49:13;;;;;;;2.42;1.30;;;31.60;96.50;;;;;;4188747;28;20084;-67
2021/10/31 05:51:17;;;;;;;1.63;1.00;;;31.50;96.30;;;;;;4188640;28;20094;-67
2021/10/31 05:53:23;;;;;;;1.83;1.27;;;31.60;96.40;;;;;;4177203;28;20040;-67
2021/10/31 05:55:27;;;;;;;2.85;1.00;;;31.60;96.30;;;;;;4185269;28;20048;-67
2021/10/31 05:57:32;;;;;;;2.20;1.10;;;31.70;95.60;;;;;;4192112;28;20451;-67
2021/10/31 05:59:37;;;;;;;0.93;0.70;;;31.70;96.10;;;;;;4189929;28;20056;-67
2021/10/31 06:01:42;;;;;;;2.10;1.20;;;31.60;95.70;;;;;;4189407;28;20578;-67
2021/10/31 06:03:47;;;;;;;1.45;1.17;;;31.40;95.90;;;;;;4181880;28;20051;-67
2021/10/31 06:05:51;;;;;;;2.00;1.48;;;31.50;96.00;;;;;;4181770;28;20363;-67
2021/10/31 06:07:56;;;;;;;2.97;1.25;;;31.50;95.80;;;;;;4186357;28;20084;-66
2021/10/31 06:10:01;;;;;;;2.53;1.10;;;31.60;96.40;;;;;;4187907;28;20045;-67
2021/10/31 06:12:07;;;;;;;2.03;1.15;;;31.60;94.60;;;;;;4182779;28;20075;-67
2021/10/31 06:14:12;;;;;;;4.05;1.10;;;31.50;94.90;;;;;;4176403;28;20048;-67
2021/10/31 06:16:16;;;;;;;3.95;1.40;;;31.50;94.80;;;;;;4186093;28;20040;-68
2021/10/31 06:18:21;;;;;;;2.25;1.00;;;31.60;95.50;;;;;;4188577;28;20044;-67
2021/10/31 06:20:25;;;;;;;2.22;1.30;;;31.70;95.60;;;;;;4189570;28;20119;-66
2021/10/31 06:22:30;;;;;;;1.73;1.30;;;31.60;95.60;;;;;;4185302;28;20048;-66
2021/10/31 06:24:35;;;;;;;3.13;1.45;;;31.60;95.80;;;;;;4181925;28;20048;-66
2021/10/31 06:26:40;;;;;;;2.58;1.30;;;31.70;95.60;;;;;;4188949;28;20045;-66
2021/10/31 06:28:45;;;;;;;3.08;1.35;;;31.70;95.90;;;;;;4186492;28;20284;-66
2021/10/31 06:30:50;;;;;;;2.72;1.42;;;31.70;96.10;;;;;;4184712;28;20417;-66
2021/10/31 06:32:54;;;;;;;3.50;1.55;;;31.70;96.00;;;;;;4182020;28;20166;-67
2021/10/31 06:34:59;;;;;;;2.70;1.30;;;31.80;95.80;;;;;;4181979;28;20048;-66
2021/10/31 06:37:04;;;;;;;1.75;1.30;;;31.90;94.90;;;;;;4186990;28;20503;-65
2021/10/31 06:39:09;;;;;;;3.40;1.30;;;31.90;95.10;;;;;;4187279;28;20060;-66
2021/10/31 06:41:13;;;;;;;1.60;1.30;;;31.90;95.00;;;;;;4187762;28;20052;-67
2021/10/31 06:43:18;;;;;;;4.43;1.80;;;31.90;95.60;;;;;;4178997;28;20109;-66
2021/10/31 06:45:22;;;;;;;2.08;1.40;;;31.80;95.90;;;;;;4182196;28;20140;-67
2021/10/31 06:47:27;;;;;;;3.20;1.90;;;31.80;96.20;;;;;;4187178;28;20075;-66
2021/10/31 06:49:32;;;;;;;4.22;2.78;;;31.80;96.30;;;;;;4202496;28;20483;-67
2021/10/31 06:51:36;;;;;;;5.00;1.95;;;31.90;96.20;;;;;;4187079;28;20513;-66
2021/10/31 06:53:41;;;;;;;4.47;1.70;;;32.00;96.10;;;;;;4178449;28;20041;-67
2021/10/31 06:55:47;;;;;;;2.42;1.30;;;32.00;95.90;;;;;;4184945;28;20052;-67
2021/10/31 06:57:51;;;;;;;2.60;1.20;;;32.10;95.80;;;;;;4185820;28;20383;-67
2021/10/31 06:59:56;;;;;;;1.52;0.93;;;32.00;94.80;;;;;;4187556;28;20059;-67
2021/10/31 07:02:01;;;;;;;3.28;1.08;;;32.00;95.00;;;;;;4188146;28;20684;-66
2021/10/31 07:04:08;;;;;;;4.18;1.20;;;32.00;94.90;;;;;;4166354;28;20055;-66
2021/10/31 07:06:13;;;;;;;1.30;1.00;;;32.10;95.10;;;;;;4186389;28;20044;-66
2021/10/31 07:08:18;;;;;;;3.05;1.20;;;32.20;95.40;;;;;;4188185;28;20076;-66
2021/10/31 07:10:22;;;;;;;3.03;1.30;;;32.30;95.30;;;;;;4186568;28;20124;-66
2021/10/31 07:12:26;;;;;;;3.75;1.30;;;32.30;95.40;;;;;;4167901;28;20049;-65
2021/10/31 07:14:31;;;;;;;1.70;1.20;;;32.30;95.50;;;;;;4185100;28;20052;-67
2021/10/31 07:16:38;;;;;;;3.47;1.20;;;32.30;95.80;;;;;;4192775;28;20044;-66
2021/10/31 07:18:42;;;;;;;2.58;1.27;;;32.30;94.90;;;;;;4185425;28;20570;-65
2021/10/31 07:20:48;;;;;;;7.20;1.27;;;32.30;94.70;;;;;;4188184;28;20425;-66
2021/10/31 07:22:53;;;;;;;5.60;1.50;;;32.20;94.50;;;;;;4183124;28;21377;-66
2021/10/31 07:25:00;;;;;;;10.90;7.15;;;32.20;94.10;;;;;;4180608;28;20402;-66
2021/10/31 07:27:05;;;;;;;11.75;6.82;;;32.10;94.40;;;;;;4189414;28;20801;-66
2021/10/31 07:29:10;;;;;;;7.97;3.03;;;32.00;94.30;;;;;;4188417;28;20068;-67
2021/10/31 07:31:16;;;;;;;3.97;2.05;;;31.90;94.60;;;;;;4189344;28;20056;-67
2021/10/31 07:33:21;;;;;;;3.35;1.80;;;32.00;94.70;;;;;;4191747;28;20047;-67
2021/10/31 07:35:26;;;;;;;3.17;1.98;;;32.00;95.00;;;;;;4189788;28;20048;-67
2021/10/31 07:37:30;;;;;;;3.30;1.50;;;31.80;95.30;;;;;;4187617;28;20037;-66
2021/10/31 07:39:37;;;;;;;3.63;1.40;;;31.80;95.40;;;;;;4189395;28;20029;-67
2021/10/31 07:41:41;;;;;;;1.75;1.30;;;31.70;95.50;;;;;;4189602;28;20040;-67
2021/10/31 07:43:46;;;;;;;2.90;1.40;;;31.70;95.40;;;;;;4183561;28;20369;-68
2021/10/31 07:45:50;;;;;;;2.67;1.27;;;31.70;95.30;;;;;;4188738;28;20043;-65
2021/10/31 07:47:55;;;;;;;1.52;1.10;;;31.60;94.60;;;;;;4187787;28;20446;-66
2021/10/31 07:49:59;;;;;;;3.92;1.08;;;31.50;95.20;;;;;;4189092;28;20048;-67
2021/10/31 07:52:04;;;;;;;1.85;1.00;;;31.60;95.10;;;;;;4191449;28;20044;-67
2021/10/31 07:54:10;;;;;;;1.92;1.10;;;31.70;95.00;;;;;;4181935;28;20101;-66
2021/10/31 07:56:17;;;;;;;2.63;1.20;;;31.80;94.40;;;;;;4193976;28;20059;-66
2021/10/31 07:58:24;;;;;;;2.22;1.20;;;31.80;94.60;;;;;;4190626;28;20450;-67
2021/10/31 08:00:29;;;;;;;3.13;1.20;;;31.70;93.30;;;;;;4190679;28;20044;-67
2021/10/31 08:02:33;;;;;;;3.53;1.38;;;31.70;94.00;;;;;;4188909;28;20045;-67
2021/10/31 08:04:39;;;;;;;2.72;1.80;;;31.70;94.30;;;;;;4186839;28;20572;-66
2021/10/31 08:06:44;;;;;;;2.70;1.77;;;31.80;93.90;;;;;;4193848;28;20044;-66
2021/10/31 08:08:48;;;;;;;1.88;1.55;;;31.70;94.20;;;;;;4191567;28;20407;-68
2021/10/31 08:10:53;;;;;;;2.58;1.45;;;31.80;94.30;;;;;;4191474;28;20036;-68
2021/10/31 08:12:58;;;;;;;2.40;1.90;;;31.80;94.50;;;;;;4187344;28;20052;-67
2021/10/31 08:15:02;;;;;;;3.50;1.60;;;31.90;94.60;;;;;;4186416;28;20052;-67
2021/10/31 08:17:06;;;;;;;2.03;1.35;;;31.90;94.60;;;;;;4191944;28;20048;-65
2021/10/31 08:19:11;;;;;;;2.55;1.40;;;31.90;94.80;;;;;;4189568;28;20406;-68
2021/10/31 08:21:16;;;;;;;2.53;1.35;;;32.00;94.70;;;;;;4190600;28;20539;-66
2021/10/31 08:23:20;;;;;;;2.90;1.58;;;32.00;94.70;;;;;;4184642;28;20102;-67
2021/10/31 08:25:24;;;;;;;1.73;1.20;;;32.00;94.60;;;;;;4188573;28;20048;-67
2021/10/31 08:27:29;;;;;;;2.85;1.50;;;32.00;94.80;;;;;;4190767;28;20164;-66
2021/10/31 08:29:34;;;;;;;2.03;1.10;;;32.00;94.80;;;;;;4190303;28;20497;-64
2021/10/31 08:31:42;;;;;;;2.60;1.35;;;32.10;94.80;;;;;;4185578;28;20049;-66
2021/10/31 08:33:46;;;;;;;3.90;1.40;;;32.10;94.60;;;;;;4180083;28;20114;-67
2021/10/31 08:35:51;;;;;;;4.53;1.65;;;32.00;94.80;;;;;;4189135;28;20047;-66
2021/10/31 08:37:56;;;;;;;3.60;1.58;;;32.00;95.00;;;;;;4192297;28;20083;-67
2021/10/31 08:40:00;;;;;;;4.82;2.00;;;31.90;95.20;;;;;;4189653;28;20041;-66
2021/10/31 08:42:06;;;;;;;2.92;1.90;;;31.90;95.30;;;;;;4190290;28;20051;-67
2021/10/31 08:44:11;;;;;;;3.63;1.90;;;31.90;95.50;;;;;;4178594;28;20036;-67
2021/10/31 08:46:16;;;;;;;3.17;2.00;;;31.90;95.50;;;;;;4188433;28;20489;-66
2021/10/31 08:48:22;;;;;;;2.88;1.55;;;31.90;95.50;;;;;;4189030;28;20118;-67
2021/10/31 08:50:27;;;;;;;3.10;1.70;;;31.90;95.60;;;;;;4189197;28;20041;-67
2021/10/31 08:52:32;;;;;;;4.10;1.58;;;31.90;95.60;;;;;;4185942;28;20662;-68
2021/10/31 08:54:38;;;;;;;3.35;1.67;;;31.90;95.50;;;;;;4182108;28;20052;-67
2021/10/31 08:56:43;;;;;;;2.58;1.50;;;31.90;94.80;;;;;;4188506;28;20049;-67
2021/10/31 08:58:48;;;;;;;3.65;2.00;;;31.80;95.30;;;;;;4189483;28;20091;-67
2021/10/31 09:00:53;;;;;;;2.53;1.40;;;31.80;95.30;;;;;;4188508;28;20568;-68
2021/10/31 09:02:59;;;;;;;4.10;1.77;;;31.80;95.10;;;;;;4183966;28;20052;-67
2021/10/31 09:05:06;;;;;;;3.17;1.85;;;31.80;95.70;;;;;;4183392;28;20071;-68
2021/10/31 09:07:14;;;;;;;2.92;1.40;;;31.70;95.70;;;;;;4188244;28;20110;-67
2021/10/31 09:09:19;;;;;;;2.22;1.67;;;31.80;95.80;;;;;;4189638;28;20041;-68
2021/10/31 09:11:24;;;;;;;3.10;1.48;;;31.80;95.70;;;;;;4185702;28;20052;-67
2021/10/31 09:13:29;;;;;;;2.38;1.48;;;31.80;95.80;;;;;;4182710;28;20173;-68
2021/10/31 09:15:34;;;;;;;3.08;1.70;;;31.80;95.80;;;;;;4186976;28;20059;-67
2021/10/31 09:17:39;;;;;;;1.92;1.38;;;31.80;95.80;;;;;;4181817;28;20048;-65
2021/10/31 09:19:44;;;;;;;4.30;1.70;;;31.90;96.20;;;;;;4180591;28;20056;-66
2021/10/31 09:21:48;;;;;;;3.10;1.70;;;31.80;95.70;;;;;;4188735;28;20044;-66
2021/10/31 09:23:54;;;;;;;3.97;1.90;;;31.80;95.80;;;;;;4177007;28;20280;-66
2021/10/31 09:25:59;;;;;;;3.78;2.00;;;31.80;95.90;;;;;;4181401;28;20045;-66
2021/10/31 09:28:06;;;;;;;3.67;1.70;;;31.80;96.00;;;;;;4185106;28;20499;-66
2021/10/31 09:30:11;;;;;;;3.97;1.60;;;31.70;96.10;;;;;;4182421;28;20056;-66
2021/10/31 09:32:16;;;;;;;3.55;1.52;;;31.70;96.10;;;;;;4186402;28;20458;-66
2021/10/31 09:34:29;;;;;;;3.22;1.52;;;31.70;96.20;;;;;;4184073;28;20064;-66
2021/10/31 09:36:35;;;;;;;3.95;1.50;;;31.70;96.20;;;;;;4187213;28;20245;-67
2021/10/31 09:38:40;;;;;;;3.70;1.70;;;31.60;96.20;;;;;;4182710;28;20036;-67
2021/10/31 09:40:46;;;;;;;3.45;1.90;;;31.60;96.20;;;;;;4188280;28;20495;-68
2021/10/31 09:42:52;;;;;;;3.20;1.77;;;31.70;96.40;;;;;;4182579;28;20048;-67
2021/10/31 09:44:57;;;;;;;2.95;1.58;;;31.60;96.20;;;;;;4165759;28;20061;-67
2021/10/31 09:47:02;;;;;;;2.83;1.60;;;31.60;96.20;;;;;;4188191;28;20301;-68
2021/10/31 09:49:08;;;;;;;3.90;1.90;;;31.60;96.30;;;;;;4187912;28;20054;-66
2021/10/31 09:51:13;;;;;;;4.70;1.80;;;31.60;96.40;;;;;;4187467;28;20522;-68
2021/10/31 09:53:19;;;;;;;4.25;1.77;;;31.60;96.40;;;;;;4173632;28;20037;-68
2021/10/31 09:55:27;;;;;;;3.92;1.83;;;31.50;96.50;;;;;;4175514;28;20800;-68
2021/10/31 09:57:32;;;;;;;3.13;1.60;;;31.50;96.60;;;;;;4187153;28;20076;-67
2021/10/31 09:59:43;;;;;;;4.05;1.80;;;31.50;96.60;;;;;;4186944;28;20053;-68
2021/10/31 10:01:57;;;;;;;2.55;1.60;;;31.40;96.80;;;;;;4185823;28;20140;-68
2021/10/31 10:04:02;;;;;;;5.30;1.88;;;31.40;96.80;;;;;;4176675;28;20037;-68
2021/10/31 10:06:18;;;;;;;3.53;1.80;;;31.40;96.90;;;;;;4187790;28;20052;-67
2021/10/31 10:08:23;;;;;;;2.67;1.60;;;31.30;96.90;;;;;;4188403;28;20123;-67
2021/10/31 10:10:29;;;;;;;3.88;2.15;;;31.30;97.10;;;;;;4187816;28;20042;-68
2021/10/31 10:12:34;;;;;;;3.92;2.40;;;31.20;97.30;;;;;;4166223;28;20055;-69
2021/10/31 10:14:39;;;;;;;3.45;2.40;;;31.20;97.30;;;;;;4180554;28;20889;-68
2021/10/31 10:16:44;;;;;;;4.75;2.67;;;31.20;97.40;;;;;;4184569;28;20044;-70
2021/10/31 10:18:49;;;;;;;6.47;2.78;;;31.10;97.40;;;;;;4185937;28;20182;-68
2021/10/31 10:20:54;;;;;;;5.60;2.55;;;31.10;97.60;;;;;;4183305;28;20129;-69
2021/10/31 10:23:10;;;;;;;4.18;2.35;;;31.10;97.70;;;;;;4181576;28;20122;-68
2021/10/31 10:25:15;;;;;;;4.97;2.40;;;31.00;97.80;;;;;;4182787;28;20036;-68
2021/10/31 10:27:23;;;;;;;4.90;2.40;;;31.00;97.90;;;;;;4187796;28;20044;-66
2021/10/31 10:29:39;;;;;;;5.60;2.20;;;31.00;98.00;;;;;;4186574;28;20301;-68
2021/10/31 10:32:04;;;;;;;3.90;2.22;;;30.90;98.30;;;;;;4188142;28;20055;-70
2021/10/31 10:34:12;;;;;;;6.10;2.15;;;30.90;98.70;;;;;;4178538;28;20072;-69
2021/10/31 10:36:17;;;;;;;5.75;2.28;;;30.90;98.80;;;;;;4184950;28;20119;-68
2021/10/31 10:38:22;;;;;;;8.88;2.80;;;30.90;99.00;;;;;;4185926;28;20118;-68
2021/10/31 10:40:28;;;;;;;5.25;2.90;;;30.80;99.10;;;;;;4181936;28;20151;-66
2021/10/31 10:42:39;;;;;;;5.32;2.55;;;30.80;99.10;;;;;;4173384;28;20495;-67
2021/10/31 10:44:45;;;;;;;5.25;2.20;;;30.80;98.90;;;;;;4178362;28;20045;-68
2021/10/31 10:46:52;;;;;;;4.53;2.60;;;30.80;99.00;;;;;;4181916;28;20036;-69
2021/10/31 10:48:58;;;;;;;6.25;2.58;;;30.70;99.20;;;;;;4186461;28;20118;-69
2021/10/31 10:51:15;;;;;;;7.35;2.78;;;30.70;99.20;;;;;;4186874;28;20459;-67
2021/10/31 10:53:21;;;;;;;12.77;3.00;;;30.70;99.20;;;;;;4181026;28;20344;-70
2021/10/31 10:55:30;;;;;;;6.95;3.30;;;30.70;99.50;;;;;;4183541;28;20131;-68
2021/10/31 10:57:37;;;;;;;6.55;3.80;;;30.60;99.60;;;;;;4186046;28;20135;-69
2021/10/31 10:59:42;;;;;;;7.22;3.42;;;30.60;99.70;;;;;;4187416;28;20044;-69